createdAt,value
2018-08-10T00:00:03.760Z,22.3333333333
2018-08-10T00:00:16.291Z,22.3888888889
2018-08-10T00:00:28.838Z,22.3333333333
2018-08-10T00:00:41.271Z,22.3333333333
2018-08-10T00:00:53.736Z,22.3333333333
2018-08-10T00:01:06.267Z,22.3333333333
2018-08-10T00:01:18.824Z,22.3333333333
2018-08-10T00:01:31.371Z,22.3333333333
2018-08-10T00:01:43.940Z,22.3333333333
2018-08-10T00:01:56.458Z,22.3333333333
2018-08-10T00:02:08.969Z,22.3333333333
2018-08-10T00:02:21.506Z,22.3333333333
2018-08-10T00:02:34.117Z,22.3333333333
2018-08-10T00:02:46.637Z,22.3333333333
2018-08-10T00:02:59.142Z,22.3333333333
2018-08-10T00:03:11.682Z,22.3333333333
2018-08-10T00:03:24.228Z,22.3333333333
2018-08-10T00:03:36.756Z,22.2777777778
2018-08-10T00:03:49.283Z,22.3333333333
2018-08-10T00:04:01.765Z,22.3333333333
2018-08-10T00:04:14.462Z,22.2777777778
2018-08-10T00:04:27.018Z,22.2777777778
2018-08-10T00:04:39.539Z,22.3333333333
2018-08-10T00:04:52.073Z,22.2777777778
2018-08-10T00:05:04.582Z,22.2777777778
2018-08-10T00:05:17.122Z,22.3333333333
2018-08-10T00:05:29.657Z,22.3333333333
2018-08-10T00:05:42.210Z,22.2777777778
2018-08-10T00:05:54.748Z,22.3333333333
2018-08-10T00:06:07.356Z,22.2777777778
2018-08-10T00:06:19.873Z,22.3333333333
2018-08-10T00:06:32.402Z,22.2777777778
2018-08-10T00:06:44.903Z,22.2777777778
2018-08-10T00:06:57.422Z,22.2777777778
2018-08-10T00:07:09.973Z,22.2777777778
2018-08-10T00:07:22.521Z,22.2777777778
2018-08-10T00:07:35.120Z,22.2777777778
2018-08-10T00:07:47.676Z,22.2777777778
2018-08-10T00:08:00.207Z,22.2777777778
2018-08-10T00:08:12.738Z,22.2777777778
2018-08-10T00:08:25.434Z,22.2777777778
2018-08-10T00:08:37.982Z,22.2777777778
2018-08-10T00:08:50.813Z,22.2222222222
2018-08-10T00:09:04.077Z,22.2222222222
2018-08-10T00:09:16.616Z,22.2777777778
2018-08-10T00:09:29.141Z,22.2222222222
2018-08-10T00:09:41.674Z,22.2777777778
2018-08-10T00:09:54.205Z,22.2222222222
2018-08-10T00:10:06.727Z,22.2777777778
2018-08-10T00:10:19.257Z,22.2222222222
2018-08-10T00:10:31.788Z,22.2222222222
2018-08-10T00:10:44.318Z,22.2222222222
2018-08-10T00:10:56.873Z,22.2222222222
2018-08-10T00:11:09.417Z,22.2222222222
2018-08-10T00:11:21.952Z,22.2222222222
2018-08-10T00:11:34.502Z,22.2222222222
2018-08-10T00:11:47.046Z,22.2222222222
2018-08-10T00:11:59.572Z,22.2222222222
2018-08-10T00:12:12.116Z,22.2222222222
2018-08-10T00:12:24.638Z,22.2222222222
2018-08-10T00:12:37.170Z,22.1666666667
2018-08-10T00:12:49.682Z,22.1666666667
2018-08-10T00:13:02.209Z,22.2222222222
2018-08-10T00:13:14.747Z,22.2222222222
2018-08-10T00:13:27.360Z,22.2222222222
2018-08-10T00:13:39.874Z,22.1666666667
2018-08-10T00:13:52.547Z,22.1666666667
2018-08-10T00:14:05.059Z,22.1666666667
2018-08-10T00:14:17.609Z,22.1666666667
2018-08-10T00:14:30.144Z,22.1666666667
2018-08-10T00:14:42.668Z,22.2222222222
2018-08-10T00:14:55.188Z,22.1666666667
2018-08-10T00:15:07.713Z,22.2222222222
2018-08-10T00:15:20.234Z,22.2222222222
2018-08-10T00:15:32.770Z,22.2222222222
2018-08-10T00:15:45.289Z,22.1666666667
2018-08-10T00:15:57.831Z,22.1666666667
2018-08-10T00:16:10.425Z,22.2222222222
2018-08-10T00:16:22.952Z,22.2222222222
2018-08-10T00:16:35.511Z,22.1666666667
2018-08-10T00:16:48.022Z,22.2222222222
2018-08-10T00:17:00.630Z,22.2222222222
2018-08-10T00:17:13.164Z,22.1666666667
2018-08-10T00:17:25.711Z,22.2222222222
2018-08-10T00:17:38.238Z,22.2222222222
2018-08-10T00:17:50.782Z,22.2222222222
2018-08-10T00:18:03.317Z,22.1666666667
2018-08-10T00:18:15.885Z,22.2222222222
2018-08-10T00:18:28.449Z,22.2222222222
2018-08-10T00:18:41.145Z,22.2222222222
2018-08-10T00:18:53.672Z,22.2222222222
2018-08-10T00:19:06.249Z,22.2222222222
2018-08-10T00:19:18.784Z,22.2222222222
2018-08-10T00:19:31.334Z,22.2222222222
2018-08-10T00:19:43.878Z,22.2222222222
2018-08-10T00:19:56.406Z,22.2222222222
2018-08-10T00:20:08.923Z,22.2222222222
2018-08-10T00:20:21.486Z,22.2222222222
2018-08-10T00:20:34.015Z,22.2222222222
2018-08-10T00:20:46.527Z,22.2222222222
2018-08-10T00:20:59.040Z,22.2222222222
2018-08-10T00:21:11.548Z,22.2222222222
2018-08-10T00:21:24.068Z,22.2222222222
2018-08-10T00:21:36.598Z,22.2222222222
2018-08-10T00:21:49.143Z,22.2222222222
2018-08-10T00:22:01.768Z,22.2222222222
2018-08-10T00:22:14.298Z,22.2222222222
2018-08-10T00:22:26.816Z,22.2222222222
2018-08-10T00:22:39.337Z,22.2222222222
2018-08-10T00:22:51.848Z,22.2222222222
2018-08-10T00:23:04.360Z,22.2222222222
2018-08-10T00:23:16.875Z,22.2222222222
2018-08-10T00:23:29.406Z,22.2222222222
2018-08-10T00:23:41.943Z,22.2222222222
2018-08-10T00:23:54.457Z,22.2222222222
2018-08-10T00:24:06.974Z,22.2777777778
2018-08-10T00:24:19.493Z,22.2222222222
2018-08-10T00:24:32.022Z,22.2222222222
2018-08-10T00:24:44.545Z,22.2222222222
2018-08-10T00:24:57.051Z,22.2222222222
2018-08-10T00:25:09.570Z,22.2222222222
2018-08-10T00:25:22.137Z,22.2222222222
2018-08-10T00:25:34.667Z,22.2222222222
2018-08-10T00:25:47.169Z,22.2222222222
2018-08-10T00:25:59.679Z,22.2222222222
2018-08-10T00:26:12.238Z,22.2222222222
2018-08-10T00:26:24.751Z,22.2222222222
2018-08-10T00:26:37.374Z,22.2222222222
2018-08-10T00:26:49.901Z,22.2222222222
2018-08-10T00:27:02.419Z,22.2222222222
2018-08-10T00:27:15.113Z,22.2222222222
2018-08-10T00:27:27.650Z,22.2222222222
2018-08-10T00:27:40.183Z,22.2222222222
2018-08-10T00:27:52.832Z,22.2222222222
2018-08-10T00:28:05.415Z,22.2222222222
2018-08-10T00:28:17.933Z,22.2222222222
2018-08-10T00:28:30.441Z,22.2222222222
2018-08-10T00:28:42.974Z,22.2222222222
2018-08-10T00:28:55.504Z,22.2222222222
2018-08-10T00:29:08.008Z,22.1666666667
2018-08-10T00:29:20.654Z,22.1666666667
2018-08-10T00:29:33.163Z,22.2222222222
2018-08-10T00:29:45.694Z,22.1666666667
2018-08-10T00:29:58.224Z,22.1666666667
2018-08-10T00:30:10.748Z,22.1666666667
2018-08-10T00:30:23.276Z,22.1666666667
2018-08-10T00:30:35.801Z,22.1666666667
2018-08-10T00:30:48.454Z,22.1666666667
2018-08-10T00:31:00.975Z,22.1666666667
2018-08-10T00:31:13.500Z,22.1666666667
2018-08-10T00:31:26.022Z,22.1666666667
2018-08-10T00:31:38.560Z,22.1666666667
2018-08-10T00:33:56.894Z,22.1666666667
2018-08-10T00:34:09.421Z,22.1666666667
2018-08-10T00:34:21.931Z,22.1666666667
2018-08-10T00:34:34.455Z,22.1666666667
2018-08-10T00:34:46.969Z,22.1666666667
2018-08-10T00:34:59.517Z,22.1666666667
2018-08-10T00:35:12.048Z,22.1666666667
2018-08-10T00:35:24.580Z,22.1666666667
2018-08-10T00:35:37.095Z,22.1666666667
2018-08-10T00:35:49.608Z,22.1666666667
2018-08-10T00:36:02.131Z,22.1666666667
2018-08-10T00:36:14.633Z,22.1111111111
2018-08-10T00:36:27.154Z,22.1666666667
2018-08-10T00:36:39.666Z,22.1111111111
2018-08-10T00:36:52.183Z,22.1111111111
2018-08-10T00:37:04.706Z,22.1111111111
2018-08-10T00:37:17.212Z,22.1111111111
2018-08-10T00:37:29.724Z,22.1111111111
2018-08-10T00:37:43.247Z,22.1111111111
2018-08-10T00:37:55.768Z,22.1111111111
2018-08-10T00:38:08.302Z,22.1111111111
2018-08-10T00:38:20.835Z,22.1111111111
2018-08-10T00:38:33.356Z,22.0555555556
2018-08-10T00:38:45.887Z,22.1111111111
2018-08-10T00:38:58.397Z,22.1111111111
2018-08-10T00:39:10.895Z,22.1111111111
2018-08-10T00:39:23.539Z,22.1666666667
2018-08-10T00:39:36.065Z,22.1111111111
2018-08-10T00:39:48.602Z,22.0555555556
2018-08-10T00:40:01.186Z,22.1111111111
2018-08-10T00:40:13.706Z,22.0555555556
2018-08-10T00:40:26.251Z,22.0555555556
2018-08-10T00:40:38.774Z,22.1111111111
2018-08-10T00:40:51.303Z,22.0555555556
2018-08-10T00:41:03.843Z,22.0555555556
2018-08-10T00:41:16.372Z,22.0555555556
2018-08-10T00:41:28.897Z,22.0555555556
2018-08-10T00:41:41.510Z,22.0555555556
2018-08-10T00:41:54.035Z,22.0555555556
2018-08-10T00:42:06.553Z,22.0555555556
2018-08-10T00:42:19.132Z,22.0555555556
2018-08-10T00:42:31.705Z,22.0555555556
2018-08-10T00:42:44.244Z,22.0555555556
2018-08-10T00:42:56.799Z,22.0555555556
2018-08-10T00:43:09.313Z,22.0555555556
2018-08-10T00:43:21.851Z,22.0555555556
2018-08-10T00:43:34.467Z,22.0555555556
2018-08-10T00:43:46.980Z,22
2018-08-10T00:43:59.502Z,22.0555555556
2018-08-10T00:44:12.010Z,22
2018-08-10T00:44:24.575Z,22
2018-08-10T00:44:37.111Z,22
2018-08-10T00:44:49.635Z,22
2018-08-10T00:45:02.209Z,22.0555555556
2018-08-10T00:45:14.729Z,22
2018-08-10T00:45:27.254Z,22
2018-08-10T00:45:39.770Z,22
2018-08-10T00:45:52.314Z,22
2018-08-10T00:46:04.838Z,22.0555555556
2018-08-10T00:46:17.415Z,22
2018-08-10T00:46:29.945Z,22
2018-08-10T00:46:42.447Z,22
2018-08-10T00:46:54.974Z,22
2018-08-10T00:47:07.481Z,22
2018-08-10T00:47:20.000Z,22
2018-08-10T00:47:32.535Z,22
2018-08-10T00:47:45.067Z,22
2018-08-10T00:47:57.596Z,22
2018-08-10T00:48:10.122Z,22
2018-08-10T00:48:22.653Z,22
2018-08-10T00:48:35.179Z,22
2018-08-10T00:48:47.714Z,22
2018-08-10T00:49:00.456Z,22
2018-08-10T00:49:12.991Z,22
2018-08-10T00:49:25.525Z,22
2018-08-10T00:49:38.032Z,22
2018-08-10T00:49:50.619Z,22
2018-08-10T00:50:03.113Z,22
2018-08-10T00:50:15.640Z,22
2018-08-10T00:50:28.312Z,22
2018-08-10T00:50:40.864Z,22
2018-08-10T00:50:53.393Z,21.9444444444
2018-08-10T00:51:05.904Z,22
2018-08-10T00:51:18.423Z,22
2018-08-10T00:51:30.932Z,21.9444444444
2018-08-10T00:51:43.573Z,21.9444444444
2018-08-10T00:51:56.073Z,21.9444444444
2018-08-10T00:52:08.598Z,22
2018-08-10T00:52:21.138Z,21.9444444444
2018-08-10T00:52:33.848Z,21.9444444444
2018-08-10T00:52:46.373Z,22
2018-08-10T00:52:58.883Z,22
2018-08-10T00:53:11.415Z,22
2018-08-10T00:53:23.915Z,21.9444444444
2018-08-10T00:53:36.425Z,21.9444444444
2018-08-10T00:53:48.941Z,21.9444444444
2018-08-10T00:54:01.462Z,21.9444444444
2018-08-10T00:54:13.988Z,21.9444444444
2018-08-10T00:54:26.525Z,21.9444444444
2018-08-10T00:54:39.044Z,21.9444444444
2018-08-10T00:54:51.528Z,21.9444444444
2018-08-10T00:55:04.051Z,21.9444444444
2018-08-10T00:55:16.635Z,21.9444444444
2018-08-10T00:55:29.173Z,21.9444444444
2018-08-10T00:55:41.700Z,21.8888888889
2018-08-10T00:55:54.241Z,21.9444444444
2018-08-10T00:56:06.749Z,21.9444444444
2018-08-10T00:56:19.282Z,21.9444444444
2018-08-10T00:56:31.790Z,21.9444444444
2018-08-10T00:56:44.577Z,21.8888888889
2018-08-10T00:56:57.079Z,21.9444444444
2018-08-10T00:57:09.589Z,21.9444444444
2018-08-10T00:57:22.187Z,21.8888888889
2018-08-10T00:57:34.690Z,21.8888888889
2018-08-10T00:57:47.194Z,21.8888888889
2018-08-10T00:57:59.773Z,21.8888888889
2018-08-10T00:58:12.300Z,21.8888888889
2018-08-10T00:58:24.850Z,21.8888888889
2018-08-10T00:58:37.361Z,21.8888888889
2018-08-10T00:58:49.896Z,21.8888888889
2018-08-10T00:59:02.432Z,21.8888888889
2018-08-10T00:59:14.936Z,21.9444444444
2018-08-10T00:59:27.492Z,21.8888888889
2018-08-10T00:59:39.986Z,21.8888888889
2018-08-10T00:59:52.496Z,21.8888888889
2018-08-10T01:00:05.019Z,21.8888888889
2018-08-10T01:00:17.549Z,21.8888888889
2018-08-10T01:00:30.080Z,21.8888888889
2018-08-10T01:00:42.616Z,21.8333333333
2018-08-10T01:00:55.159Z,21.8333333333
2018-08-10T01:01:07.724Z,21.8888888889
2018-08-10T01:01:20.294Z,21.8333333333
2018-08-10T01:01:32.835Z,21.8888888889
2018-08-10T01:01:45.358Z,21.8888888889
2018-08-10T01:01:57.906Z,21.8333333333
2018-08-10T01:02:10.436Z,21.8888888889
2018-08-10T01:02:22.963Z,21.8888888889
2018-08-10T01:02:35.581Z,21.8333333333
2018-08-10T01:02:48.099Z,21.8333333333
2018-08-10T01:03:00.616Z,21.8333333333
2018-08-10T01:03:13.150Z,21.8333333333
2018-08-10T01:03:25.658Z,21.8333333333
2018-08-10T01:03:38.191Z,21.8333333333
2018-08-10T01:03:50.696Z,21.8333333333
2018-08-10T01:04:03.200Z,21.8333333333
2018-08-10T01:04:15.889Z,21.8333333333
2018-08-10T01:04:28.412Z,21.8333333333
2018-08-10T01:04:40.935Z,21.8333333333
2018-08-10T01:04:53.448Z,21.8333333333
2018-08-10T01:05:06.022Z,21.8333333333
2018-08-10T01:05:18.571Z,21.8333333333
2018-08-10T01:05:31.103Z,21.8333333333
2018-08-10T01:05:43.628Z,21.8333333333
2018-08-10T01:05:56.144Z,21.8333333333
2018-08-10T01:06:08.660Z,21.8333333333
2018-08-10T01:06:21.333Z,21.7777777778
2018-08-10T01:06:33.875Z,21.8333333333
2018-08-10T01:06:46.368Z,21.8333333333
2018-08-10T01:06:58.902Z,21.8333333333
2018-08-10T01:07:11.425Z,21.8333333333
2018-08-10T01:07:23.968Z,21.8333333333
2018-08-10T01:07:36.506Z,21.7777777778
2018-08-10T01:07:49.025Z,21.7777777778
2018-08-10T01:08:01.589Z,21.8333333333
2018-08-10T01:08:14.111Z,21.7777777778
2018-08-10T01:08:26.789Z,21.7777777778
2018-08-10T01:08:39.310Z,21.7777777778
2018-08-10T01:08:51.840Z,21.7777777778
2018-08-10T01:09:04.356Z,21.7777777778
2018-08-10T01:09:16.918Z,21.7777777778
2018-08-10T01:09:29.456Z,21.7777777778
2018-08-10T01:09:41.987Z,21.7777777778
2018-08-10T01:09:54.566Z,21.7777777778
2018-08-10T01:10:07.085Z,21.7777777778
2018-08-10T01:10:19.597Z,21.7777777778
2018-08-10T01:10:32.125Z,21.7777777778
2018-08-10T01:10:44.644Z,21.7777777778
2018-08-10T01:10:57.131Z,21.7777777778
2018-08-10T01:11:09.645Z,21.7222222222
2018-08-10T01:11:22.206Z,21.7777777778
2018-08-10T01:11:34.717Z,21.7222222222
2018-08-10T01:11:47.240Z,21.7777777778
2018-08-10T01:11:59.790Z,21.7777777778
2018-08-10T01:12:12.314Z,21.7777777778
2018-08-10T01:12:24.829Z,21.7222222222
2018-08-10T01:12:37.327Z,21.7777777778
2018-08-10T01:12:49.862Z,21.7777777778
2018-08-10T01:13:02.393Z,21.7777777778
2018-08-10T01:13:15.485Z,21.7222222222
2018-08-10T01:13:29.583Z,21.7222222222
2018-08-10T01:13:43.088Z,21.7777777778
2018-08-10T01:13:55.775Z,21.7222222222
2018-08-10T01:14:08.323Z,21.7777777778
2018-08-10T01:14:20.944Z,21.7222222222
2018-08-10T01:14:33.452Z,21.7222222222
2018-08-10T01:14:45.986Z,21.7222222222
2018-08-10T01:14:58.564Z,21.7222222222
2018-08-10T01:15:11.124Z,21.7222222222
2018-08-10T01:15:23.663Z,21.7222222222
2018-08-10T01:15:36.196Z,21.7222222222
2018-08-10T01:15:48.729Z,21.7222222222
2018-08-10T01:16:01.246Z,21.7222222222
2018-08-10T01:16:13.795Z,21.7222222222
2018-08-10T01:16:26.302Z,21.7222222222
2018-08-10T01:16:38.825Z,21.7222222222
2018-08-10T01:16:51.355Z,21.7222222222
2018-08-10T01:17:04.063Z,21.6666666667
2018-08-10T01:17:16.573Z,21.6666666667
2018-08-10T01:17:29.102Z,21.6666666667
2018-08-10T01:17:41.655Z,21.6666666667
2018-08-10T01:17:54.192Z,21.7222222222
2018-08-10T01:18:06.718Z,21.6666666667
2018-08-10T01:18:19.253Z,21.6666666667
2018-08-10T01:18:31.782Z,21.6666666667
2018-08-10T01:18:44.319Z,21.6666666667
2018-08-10T01:18:56.849Z,21.6666666667
2018-08-10T01:19:10.240Z,21.6666666667
2018-08-10T01:19:24.336Z,21.7222222222
2018-08-10T01:19:37.819Z,21.7222222222
2018-08-10T01:19:50.332Z,21.7222222222
2018-08-10T01:20:02.862Z,21.6666666667
2018-08-10T01:20:15.389Z,21.7222222222
2018-08-10T01:20:27.935Z,21.6666666667
2018-08-10T01:20:40.436Z,21.6666666667
2018-08-10T01:20:52.959Z,21.6666666667
2018-08-10T01:21:05.485Z,21.6666666667
2018-08-10T01:21:18.034Z,21.6666666667
2018-08-10T01:21:30.587Z,21.6666666667
2018-08-10T01:21:43.095Z,21.6666666667
2018-08-10T01:21:55.636Z,21.6666666667
2018-08-10T01:22:08.504Z,21.6666666667
2018-08-10T01:22:21.010Z,21.6666666667
2018-08-10T01:22:33.526Z,21.6666666667
2018-08-10T01:22:46.064Z,21.6666666667
2018-08-10T01:22:58.573Z,21.6666666667
2018-08-10T01:23:11.068Z,21.6666666667
2018-08-10T01:23:23.609Z,21.6666666667
2018-08-10T01:23:36.115Z,21.6666666667
2018-08-10T01:23:48.616Z,21.6666666667
2018-08-10T01:24:01.131Z,21.6111111111
2018-08-10T01:24:13.658Z,21.6111111111
2018-08-10T01:24:26.278Z,21.6111111111
2018-08-10T01:24:38.777Z,21.6111111111
2018-08-10T01:24:51.302Z,21.6111111111
2018-08-10T01:25:03.853Z,21.6111111111
2018-08-10T01:25:16.374Z,21.6666666667
2018-08-10T01:25:29.084Z,21.6666666667
2018-08-10T01:25:41.623Z,21.6111111111
2018-08-10T01:25:54.121Z,21.6666666667
2018-08-10T01:26:06.631Z,21.6111111111
2018-08-10T01:26:19.161Z,21.6666666667
2018-08-10T01:26:31.697Z,21.6111111111
2018-08-10T01:26:44.246Z,21.6111111111
2018-08-10T01:26:56.790Z,21.6111111111
2018-08-10T01:27:09.308Z,21.6111111111
2018-08-10T01:27:22.161Z,21.6111111111
2018-08-10T01:27:34.684Z,21.6111111111
2018-08-10T01:27:47.241Z,21.6111111111
2018-08-10T01:27:59.745Z,21.6111111111
2018-08-10T01:28:12.341Z,21.6111111111
2018-08-10T01:28:25.693Z,21.6111111111
2018-08-10T01:28:39.537Z,21.6111111111
2018-08-10T01:28:53.615Z,21.6111111111
2018-08-10T01:29:07.514Z,21.6111111111
2018-08-10T01:29:20.220Z,21.6111111111
2018-08-10T01:29:32.758Z,21.6111111111
2018-08-10T01:29:45.262Z,21.6111111111
2018-08-10T01:29:57.779Z,21.5555555556
2018-08-10T01:30:10.337Z,21.5555555556
2018-08-10T01:30:22.875Z,21.5555555556
2018-08-10T01:30:35.407Z,21.5555555556
2018-08-10T01:30:48.099Z,21.5555555556
2018-08-10T01:31:00.617Z,21.6111111111
2018-08-10T01:31:13.143Z,21.5555555556
2018-08-10T01:31:25.698Z,21.5555555556
2018-08-10T01:31:38.226Z,21.6111111111
2018-08-10T01:31:50.742Z,21.6111111111
2018-08-10T01:32:03.238Z,21.5555555556
2018-08-10T01:32:15.767Z,21.6111111111
2018-08-10T01:32:28.292Z,21.5555555556
2018-08-10T01:32:40.988Z,21.5555555556
2018-08-10T01:32:53.515Z,21.6111111111
2018-08-10T01:33:06.069Z,21.6111111111
2018-08-10T01:33:18.596Z,21.5555555556
2018-08-10T01:33:31.121Z,21.5555555556
2018-08-10T01:33:43.634Z,21.6111111111
2018-08-10T01:33:56.341Z,21.6111111111
2018-08-10T01:34:08.876Z,21.5555555556
2018-08-10T01:34:21.370Z,21.5555555556
2018-08-10T01:34:33.875Z,21.5555555556
2018-08-10T01:34:46.379Z,21.5555555556
2018-08-10T01:34:58.903Z,21.5555555556
2018-08-10T01:35:11.436Z,21.5555555556
2018-08-10T01:35:23.956Z,21.5555555556
2018-08-10T01:35:36.471Z,21.5555555556
2018-08-10T01:35:49.083Z,21.5555555556
2018-08-10T01:36:01.589Z,21.5555555556
2018-08-10T01:36:14.104Z,21.5555555556
2018-08-10T01:36:26.655Z,21.5555555556
2018-08-10T01:36:39.176Z,21.5555555556
2018-08-10T01:36:51.680Z,21.5555555556
2018-08-10T01:37:04.195Z,21.6111111111
2018-08-10T01:37:16.703Z,21.5555555556
2018-08-10T01:37:29.206Z,21.5555555556
2018-08-10T01:37:41.713Z,21.5555555556
2018-08-10T01:37:54.264Z,21.5555555556
2018-08-10T01:38:06.797Z,21.6111111111
2018-08-10T01:38:19.334Z,21.6111111111
2018-08-10T01:38:31.832Z,21.6111111111
2018-08-10T01:38:44.346Z,21.6111111111
2018-08-10T01:38:56.867Z,21.5555555556
2018-08-10T01:39:09.394Z,21.5555555556
2018-08-10T01:39:22.083Z,21.6111111111
2018-08-10T01:39:34.602Z,21.6111111111
2018-08-10T01:39:47.129Z,21.6111111111
2018-08-10T01:39:59.636Z,21.6111111111
2018-08-10T01:40:12.164Z,21.6111111111
2018-08-10T01:40:24.675Z,21.5555555556
2018-08-10T01:40:37.223Z,21.6111111111
2018-08-10T01:40:49.755Z,21.5555555556
2018-08-10T01:41:02.279Z,21.5555555556
2018-08-10T01:41:14.803Z,21.6111111111
2018-08-10T01:41:27.391Z,21.5555555556
2018-08-10T01:41:39.902Z,21.5555555556
2018-08-10T01:41:52.415Z,21.5555555556
2018-08-10T01:42:04.922Z,21.6111111111
2018-08-10T01:42:17.434Z,21.5555555556
2018-08-10T01:42:29.955Z,21.5555555556
2018-08-10T01:42:42.475Z,21.5555555556
2018-08-10T01:42:54.985Z,21.5555555556
2018-08-10T01:43:07.518Z,21.6111111111
2018-08-10T01:43:20.043Z,21.6111111111
2018-08-10T01:43:32.583Z,21.5555555556
2018-08-10T01:43:45.083Z,21.5555555556
2018-08-10T01:43:57.640Z,21.6111111111
2018-08-10T01:44:10.144Z,21.6111111111
2018-08-10T01:44:22.684Z,21.6111111111
2018-08-10T01:44:35.191Z,21.5555555556
2018-08-10T01:44:47.710Z,21.5555555556
2018-08-10T01:45:00.226Z,21.5555555556
2018-08-10T01:45:12.728Z,21.5555555556
2018-08-10T01:45:25.259Z,21.5555555556
2018-08-10T01:45:37.768Z,21.5555555556
2018-08-10T01:45:50.316Z,21.5555555556
2018-08-10T01:46:02.940Z,21.5555555556
2018-08-10T01:46:15.479Z,21.5555555556
2018-08-10T01:46:27.993Z,21.5555555556
2018-08-10T01:46:40.524Z,21.5555555556
2018-08-10T01:46:53.060Z,21.5555555556
2018-08-10T01:47:05.583Z,21.5555555556
2018-08-10T01:47:18.111Z,21.5555555556
2018-08-10T01:47:30.641Z,21.5555555556
2018-08-10T01:47:43.179Z,21.5555555556
2018-08-10T01:47:55.702Z,21.5555555556
2018-08-10T01:48:08.237Z,21.5555555556
2018-08-10T01:48:20.757Z,21.5555555556
2018-08-10T01:48:33.268Z,21.5555555556
2018-08-10T01:48:45.779Z,21.5555555556
2018-08-10T01:48:58.413Z,21.5555555556
2018-08-10T01:49:10.949Z,21.5555555556
2018-08-10T01:49:23.637Z,21.5555555556
2018-08-10T01:49:36.172Z,21.5555555556
2018-08-10T01:49:48.693Z,21.5555555556
2018-08-10T01:50:01.223Z,21.5555555556
2018-08-10T01:50:13.783Z,21.5555555556
2018-08-10T01:50:26.316Z,21.5555555556
2018-08-10T01:50:38.840Z,21.5555555556
2018-08-10T01:50:51.405Z,21.5555555556
2018-08-10T01:51:03.917Z,21.5555555556
2018-08-10T01:51:16.430Z,21.5555555556
2018-08-10T01:51:28.958Z,21.5555555556
2018-08-10T01:51:41.649Z,21.5555555556
2018-08-10T01:51:54.175Z,21.5555555556
2018-08-10T01:52:06.667Z,21.5
2018-08-10T01:52:19.194Z,21.5
2018-08-10T01:52:31.768Z,21.5555555556
2018-08-10T01:52:44.291Z,21.5555555556
2018-08-10T01:52:56.795Z,21.5
2018-08-10T01:53:09.333Z,21.5555555556
2018-08-10T01:53:21.837Z,21.5
2018-08-10T01:53:34.366Z,21.5555555556
2018-08-10T01:53:46.909Z,21.5
2018-08-10T01:53:59.431Z,21.5555555556
2018-08-10T01:54:11.945Z,21.5
2018-08-10T01:54:24.469Z,21.5555555556
2018-08-10T01:54:37.005Z,21.5
2018-08-10T01:54:49.509Z,21.5
2018-08-10T01:55:02.007Z,21.5
2018-08-10T01:55:14.546Z,21.5
2018-08-10T01:55:27.088Z,21.5
2018-08-10T01:55:39.653Z,21.5
2018-08-10T01:55:52.175Z,21.5
2018-08-10T01:56:04.699Z,21.5
2018-08-10T01:56:17.220Z,21.5
2018-08-10T01:56:29.780Z,21.5
2018-08-10T01:56:42.573Z,21.5
2018-08-10T01:56:55.103Z,21.5
2018-08-10T01:57:07.631Z,21.5
2018-08-10T01:57:20.135Z,21.5
2018-08-10T01:57:32.663Z,21.5
2018-08-10T01:57:45.171Z,21.5
2018-08-10T01:57:57.685Z,21.5
2018-08-10T01:58:10.214Z,21.4444444444
2018-08-10T01:58:22.735Z,21.5
2018-08-10T01:58:35.284Z,21.4444444444
2018-08-10T01:58:47.821Z,21.4444444444
2018-08-10T01:59:00.335Z,21.5
2018-08-10T01:59:12.845Z,21.5
2018-08-10T01:59:25.355Z,21.4444444444
2018-08-10T01:59:37.920Z,21.4444444444
2018-08-10T01:59:50.444Z,21.4444444444
2018-08-10T02:00:02.972Z,21.4444444444
2018-08-10T02:00:15.558Z,21.4444444444
2018-08-10T02:00:28.120Z,21.4444444444
2018-08-10T02:00:40.668Z,21.4444444444
2018-08-10T02:00:53.200Z,21.5
2018-08-10T02:01:05.769Z,21.4444444444
2018-08-10T02:01:18.361Z,21.4444444444
2018-08-10T02:01:30.893Z,21.4444444444
2018-08-10T02:01:43.435Z,21.4444444444
2018-08-10T02:01:55.928Z,21.4444444444
2018-08-10T02:02:08.442Z,21.4444444444
2018-08-10T02:02:20.948Z,21.4444444444
2018-08-10T02:02:33.603Z,21.4444444444
2018-08-10T02:02:46.104Z,21.4444444444
2018-08-10T02:02:58.613Z,21.4444444444
2018-08-10T02:03:11.127Z,21.4444444444
2018-08-10T02:03:23.651Z,21.3888888889
2018-08-10T02:03:36.175Z,21.4444444444
2018-08-10T02:03:48.709Z,21.4444444444
2018-08-10T02:04:01.233Z,21.4444444444
2018-08-10T02:04:13.927Z,21.4444444444
2018-08-10T02:04:26.484Z,21.4444444444
2018-08-10T02:04:38.990Z,21.4444444444
2018-08-10T02:04:51.530Z,21.3888888889
2018-08-10T02:05:04.059Z,21.4444444444
2018-08-10T02:05:16.648Z,21.4444444444
2018-08-10T02:05:29.201Z,21.4444444444
2018-08-10T02:05:41.769Z,21.4444444444
2018-08-10T02:05:54.294Z,21.4444444444
2018-08-10T02:06:06.794Z,21.3888888889
2018-08-10T02:06:19.489Z,21.3888888889
2018-08-10T02:06:32.016Z,21.3888888889
2018-08-10T02:06:44.539Z,21.3888888889
2018-08-10T02:06:57.111Z,21.3888888889
2018-08-10T02:07:09.629Z,21.4444444444
2018-08-10T02:07:22.160Z,21.3888888889
2018-08-10T02:07:34.670Z,21.4444444444
2018-08-10T02:07:47.204Z,21.3888888889
2018-08-10T02:07:59.723Z,21.3888888889
2018-08-10T02:08:12.229Z,21.3888888889
2018-08-10T02:08:24.880Z,21.3888888889
2018-08-10T02:08:37.440Z,21.4444444444
2018-08-10T02:08:49.967Z,21.4444444444
2018-08-10T02:09:02.484Z,21.4444444444
2018-08-10T02:09:14.995Z,21.3888888889
2018-08-10T02:09:27.545Z,21.3888888889
2018-08-10T02:09:40.073Z,21.3888888889
2018-08-10T02:09:52.618Z,21.3888888889
2018-08-10T02:10:05.170Z,21.3888888889
2018-08-10T02:10:17.712Z,21.3888888889
2018-08-10T02:10:30.224Z,21.3888888889
2018-08-10T02:10:42.891Z,21.3888888889
2018-08-10T02:10:55.443Z,21.3888888889
2018-08-10T02:11:07.950Z,21.3888888889
2018-08-10T02:11:20.482Z,21.4444444444
2018-08-10T02:11:33.019Z,21.4444444444
2018-08-10T02:11:45.575Z,21.4444444444
2018-08-10T02:11:58.113Z,21.3888888889
2018-08-10T02:12:10.654Z,21.3888888889
2018-08-10T02:12:23.231Z,21.3888888889
2018-08-10T02:12:35.800Z,21.3888888889
2018-08-10T02:12:48.380Z,21.3888888889
2018-08-10T02:13:00.886Z,21.3888888889
2018-08-10T02:13:13.424Z,21.3888888889
2018-08-10T02:13:25.945Z,21.3888888889
2018-08-10T02:13:38.474Z,21.3888888889
2018-08-10T02:13:51.191Z,21.3888888889
2018-08-10T02:14:03.707Z,21.3888888889